OLBA/BEY METAR and TAF weather

Enter ICAO airport designator
Station Type Date Time Source
OLBA METAR 2019/10/15 09:00 UTC NOAA

OLBA 150900Z 02010KT 8000 BKN120 32/18 Q1016 NOSIG


Station Type Date Time Source
OLBA Decoded METAR 2019/10/15 09:00 UTC NOAA

Beyrouth Aeroport , Lebanon (OLBA) 33-49N 035-29E 19M
Oct 15, 2019 - 05:00 AM EDT / 2019.10.15 0900 UTC
Wind: from the NNE (020 degrees) at 12 MPH (10 KT):0
Visibility: 4 mile(s):0
Sky conditions: mostly cloudy
Temperature: 89 F (32 C)
Dew Point: 64 F (18 C)
Relative Humidity: 43%
Pressure (altimeter): 30.00 in. Hg (1016 hPa)
ob: OLBA 150900Z 02010KT 8000 BKN120 32/18 Q1016 NOSIG
cycle: 9

Station Type Date Time Source
OLBA TAF 2019/10/15 06:54 UTC NOAA

TAF TAF OLBA 150400Z 1506/1612 05010G20KT 7000 FEW022 BKN120
TEMPO 1506/1612 3000 HZ
BECMG 1521/1524 22010G20KT SCT022 SCT100
BECMG 1609/1612 BKN022
TEMPO 1606/1612 -RA

Example: see airport list